Whale Point, California Weather observations

Data are for observation ending at time listed.
 Day   Time    Ave.   Ave.  Ave.  Vector   Max.   Stn.    Total    Solar   Ave.  
  of    of     Air    Rel.  Wind   Wind    Wind   Baro.  Precip.   Rad.    Soil  
Year   Day     Temp.  Hum.  Speed  Dir.    Gust   Pres.                    Temp. 
2017   (PST)    F      %     mph   deg.    mph     mb.     in.     W/m2     F   
------------------------------------------------------------------------------
  83   16:40   52.0    93    2.9   296      6.1   1001.0    0.01      16    57.7
  83   16:50   52.1    93    3.1   354      7.0   1000.7    0.00      22    57.7
  83   17:00   52.3    93    2.6   330      6.1   1000.7    0.01      13    57.7
  83   17:10   52.3    93    3.7   336      9.0   1000.7    0.00      10    57.7
  83   17:20   52.7    91    1.9   276      6.6   1000.7    0.01       9    57.7
  83   17:30   52.7    91    1.1   359      3.1   1000.7    0.00       6    57.7
  83   17:40   52.6    91    1.1    18      3.5   1000.7    0.00       5    57.7
  83   17:50   52.4    91    2.5    48      5.6   1000.3    0.00       5    57.7
  83   18:00   52.3    92    3.3    30      4.8   1000.3    0.01       2    57.7
  83   18:10   52.1    92    2.2    44      4.2   1000.3    0.00       1    57.7
  83   18:20   52.2    92    3.3    39      6.4   1000.3    0.00       0    57.6
  83   18:30   52.2    92    2.2     6      4.5   1000.3    0.00       0    57.6
  83   18:40   52.1    93    2.4    47      4.5   1000.3    0.04       0    57.6
  83   18:50   52.1    93    2.1    10      5.0   1000.3    0.02       0    57.6
  83   19:00   52.0    93    2.2    40      4.6   1000.3    0.01       0    57.6
  83   19:10   52.0    93    1.3    26      3.7   1000.3    0.02       0    57.5
  83   19:20   52.0    93    1.0    19      2.8   1000.3    0.02       0    57.5
  83   19:30   52.0    94    4.4    51      6.7   1000.3    0.01       0    57.5
  83   19:40   52.2    93    4.7    44      7.7   1000.3    0.01       0    57.5
  83   19:50   52.3    93    3.3    34      6.8   1000.3    0.00       0    57.4
  83   20:00   52.6    92    2.8    38      7.5   1000.3    0.00       0    57.4
  83   20:10   52.8    91    1.8   316      4.2   1000.3    0.01       0    57.4
  83   20:20   52.8    91    2.4   253      8.0   1000.3    0.00       0    57.3
  83   20:30   52.8    92    3.1   229     10.8   1000.7    0.01       0    57.3
  83   20:40   52.8    92    2.2   274      8.6   1000.3    0.00       0    57.3
  83   20:50   52.7    92    1.3   340      3.0   1000.3    0.00       0    57.3
  83   21:00   52.4    92    1.4   316      3.8   1000.3    0.01       0    57.2
  83   21:10   52.2    93    1.2   301      5.4   1000.3    0.00       0    57.2
  83   21:20   52.1    93    1.7   350      3.7   1000.7    0.00       0    57.2
  83   21:30   52.0    94    3.1   358      5.3   1000.7    0.01       0    57.2
  83   21:40   51.9    94    2.0    22      4.5   1000.3    0.00       0    57.2
  83   21:50   51.9    94    1.1   351      3.2   1000.3    0.01       0    57.1
  83   22:00   51.9    94    0.7     8      2.0   1000.3    0.00       0    57.1
  83   22:10   51.8    94    0.6   323      2.7   1000.3    0.01       0    57.1
  83   22:20   51.8    94    2.1    52      4.8   1000.0    0.03       0    57.1
  83   22:30   51.9    94    3.6    36      5.0   1000.0    0.02       0    57.0
  83   22:40   51.8    94    1.1    43      2.3   1000.0    0.01       0    57.0
  83   22:50   51.8    94    0.2   302      1.9   1000.0    0.00       0    57.0
  83   23:00   51.8    94    0.4    49      1.4   999.7    0.01       0    57.0
  83   23:10   51.7    94    1.4    47      2.2   999.7    0.00       0    56.9
  83   23:20   51.7    95    0.3    46      1.5   999.7    0.00       0    56.9
  83   23:30   51.7    95    2.6    39      5.2   999.7    0.01       0    56.9
  83   23:40   51.7    95    4.9    41      6.3   999.3    0.00       0    56.9
  83   23:50   51.8    95    4.2    49      5.7   999.3    0.00       0    56.8
  84    0:00   51.9    94    4.2    73      6.1   999.3    0.02       0    56.8
  84    0:10   52.0    93    1.4    81      4.3   999.3    0.00       0    56.8
  84    0:20   51.9    93    3.4    46      5.8   999.3    0.01       0    56.8
  84    0:30   51.7    93    1.5    11      3.7   999.3    0.01       0    56.8
  84    0:40   51.5    94    0.6   339      2.8   999.3    0.00       0    56.7
  84    0:50   51.5    94    4.6    67      8.0   999.3    0.00       0    56.7
  84    1:00   51.7    93    5.3    75      8.1   999.0    0.00       0    56.7
  84    1:10   52.3    89    4.3    70      7.1   999.0    0.00       0    56.7
  84    1:20   52.0    90    3.5    28      5.8   999.3    0.00       0    56.6
  84    1:30   51.9    91    0.5   306      1.9   999.3    0.01       0    56.6
  84    1:40   51.7    91    0.8   289      2.9   999.3    0.00       0    56.6
  84    1:50   51.6    92    0.3   227      1.7   999.3    0.00       0    56.6
  84    2:00   51.4    92    0.6   274      2.5   999.3    0.00       0    56.5
  84    2:10   51.3    92    2.2    31      3.9   999.0    0.00       0    56.5
  84    2:20   51.1    92    0.3     5      2.1   999.0    0.00       0    56.5
  84    2:30   51.2    92    0.4   259      2.1   999.0    0.00       0    56.5
  84    2:40   51.2    93    0.0   120      0.1   998.6    0.00       0    56.5
  84    2:50   51.2    93    0.0     0      0.0   998.6    0.00       0    56.4
  84    3:00   51.1    93    0.0     0      0.0   998.6    0.00       0    56.4
  84    3:10   51.0    94    1.7    15      6.1   998.6    0.00       0    56.4
  84    3:20   50.8    94    0.8   344      4.3   998.6    0.00       0    56.4
  84    3:30   50.9    94    0.2    47      2.3   998.6    0.00       0    56.4
  84    3:40   50.9    94    1.9   350      4.6   998.6    0.00       0    56.4
  84    3:50   50.9    94    0.8     2      3.1   998.3    0.00       0    56.3
  84    4:00   50.9    94    2.3    38      5.6   998.3    0.01       0    56.3
  84    4:10   50.9    94    3.1    38      4.7   998.3    0.00       0    56.3
  84    4:20   50.8    94    1.3    31      3.4   998.3    0.00       0    56.3
  84    4:30   50.8    94    2.4   360      5.9   998.3    0.00       0    56.3
  84    4:40   50.6    94    0.7   324      3.7   998.3    0.00       0    56.3
  84    4:50   50.9    93    4.7   356      9.6   998.3    0.00       0    56.3
  84    5:00   51.1    91    6.5     8     13.0   998.3    0.00       0    56.2
  84    5:10   51.0    90    4.1    33      6.0   998.3    0.00       0    56.2
  84    5:20   51.0    90    2.5   359      5.6   998.3    0.00       0    56.2
  84    5:30   50.9    90    4.1    13      8.5   998.3    0.00       0    56.2
  84    5:40   50.8    90    3.5    15      6.9   998.3    0.00       0    56.2
  84    5:50   50.4    90    3.6    32      5.0   998.3    0.00       0    56.2
  84    6:00   50.2    90    3.4    38      6.5   998.3    0.00       2    56.1
  84    6:10   50.0    91    5.6    33      8.6   998.3    0.00       5    56.1
  84    6:20   50.0    90    4.6    54      7.5   998.3    0.00       9    56.1
  84    6:30   49.4    90    8.2    63     10.7   998.3    0.00      12    56.0
  84    6:40   49.3    90    9.6    59     11.8   998.3    0.00      16    56.0
  84    6:50   49.6    88    8.7    55     11.3   998.0    0.00      20    56.0
  84    7:00   50.1    85    8.7    60     11.7   998.0    0.00      21    55.9
  84    7:10   50.5    84    6.9    61     11.8   998.3    0.00      26    55.9
  84    7:20   51.5    80    4.0    54      8.3   998.3    0.00      27    55.9
  84    7:30   51.1    83    1.4   139      3.4   998.3    0.00      28    55.8
  84    7:40   50.5    87    1.5   146      3.0   998.6    0.00      32    55.8
  84    7:50   50.8    88    0.8   114      2.5   998.6    0.00     147    55.7
  84    8:00   52.4    86    0.6    47      2.1   998.6    0.00     406    55.7
  84    8:10   53.7    84    0.3    25      1.2   998.6    0.00     390    55.6
  84    8:20   54.8    82    0.8   192      3.2   998.6    0.00     449    55.6
  84    8:30   55.1    82    1.7   182      3.4   998.6    0.00     434    55.5
  84    8:40   54.5    81    2.1   209      3.5   999.0    0.00     490    55.5
  84    8:50   54.6    83    2.2   196      3.6   999.0    0.00     453    55.5
  84    9:00   53.7    84    2.0   210      3.2   999.0    0.00     511    55.5
  84    9:10   54.3    85    2.6   196      4.2   999.3    0.00     634    55.4
  84    9:20   54.3    84    2.8   198      3.8   999.3    0.00     561    55.5
  84    9:30   53.5    86    3.7   201      5.2   999.3    0.00     708    55.4
  84    9:40   53.8    87    3.6   202      5.2   999.3    0.00     693    55.4
  84    9:50   53.8    87    3.3   201      5.6   999.7    0.00     728    55.4
  84   10:00   54.8    87    2.5   192      5.0   999.7    0.00     739    55.4
  84   10:10   55.3    86    2.6   206      4.5   999.7    0.00     847    55.5
  84   10:20   56.4    83    2.6   188      4.6   999.7    0.00     826    55.5
  84   10:30   57.8    79    2.8   194      5.6   999.7    0.00     854    55.6
  84   10:40   57.5    81    3.8   209      5.9   999.7    0.00     909    55.6
  84   10:50   56.3    84    4.1   204      6.1   1000.0    0.00     971    55.7
  84   11:00   56.6    85    3.4   201      5.4   999.7    0.00     927    55.7
  84   11:10   56.6    82    3.9   220      6.2   999.7    0.00     996    55.8
  84   11:20   57.3    81    3.4   199      6.2   999.7    0.00     949    55.9
  84   11:30   57.9    82    3.0   215      5.8   999.7    0.00     888    55.9
  84   11:40   57.6    83    4.6   209      8.5   999.7    0.00    1013    56.0
  84   11:50   56.8    84    5.1   222      7.5   999.7    0.00    1054    56.2
  84   12:00   56.0    84    4.1   203      6.8   999.7    0.00     634    56.4
  84   12:10   56.6    83    4.8   222      8.3   999.3    0.00     990    56.5
  84   12:20   56.6    83    4.8   264     10.4   999.7    0.00     952    56.7
  84   12:30   55.8    83    6.0   302     12.1   999.3    0.00    1012    56.9
  84   12:40   55.6    84    5.1   224     11.6   999.3    0.00    1028    57.1
  84   12:50   56.6    83    6.3   287     12.8   999.0    0.00    1043    57.3
  84   13:00   55.8    83    5.4   298     12.6   999.0    0.00    1012    57.5
  84   13:10   55.9    81    4.5   235     14.2   999.0    0.00     964    57.8
  84   13:20   56.0    81    6.3   353     22.2   999.0    0.00    1080    58.0
  84   13:30   55.9    80    8.1     2     27.1   999.0    0.00     991    58.2
  84   13:40   54.5    82   10.4   353     24.3   998.6    0.00     576    58.5
  84   13:50   54.5    82    7.4   354     18.9   998.6    0.00     713    58.7
  84   14:00   56.4    80    4.3   261     11.5   998.6    0.00     874    59.0
  84   14:10   56.7    79    5.3   235     12.8   998.6    0.00     913    59.2
  84   14:20   56.6    78    5.0   320     15.9   998.6    0.00     830    59.5
  84   14:30   56.4    78    5.5   357     12.9   998.6    0.00     518    59.8
  84   14:40   55.5    79    5.6    17     19.5   998.6    0.00     446    60.0
  84   14:50   55.6    79    6.0     0     15.9   998.6    0.00     693    60.3
  84   15:00   57.5    77    3.4   276      8.8   998.6    0.00     644    60.5
  84   15:10   56.8    76    5.6   329     16.5   998.6    0.00     560    60.8
  84   15:20   57.8    76    3.9   300      9.9   998.3    0.00     629    61.0
  84   15:30   58.5    74    5.0   275     12.9   998.3    0.00     609    61.2
  84   15:40   59.0    74    4.6   272      9.8   998.0    0.00     567    61.4
  84   15:50   59.0    72    5.0   255     11.1   998.0    0.00     523    61.7
  84   16:00   57.7    71    7.6   331     20.2   998.0    0.00     489    61.9
  84   16:10   56.2    73    5.4     4     13.9   998.0    0.00     452    62.1
  84   16:20   56.8    72    4.4     8      9.1   998.0    0.00     416    62.3
  84   16:30   56.7    72    4.9   344     15.5   998.0    0.00     381    62.5

Return to Whale Point graphs page.


Western Regional Climate Center,wrcc@dri.edu